Time;durP1;ratioP1;P1;durP2;ratioP2;P2;SDS_P1;SDS_P2;PMS_P1;PMS_P2;Temp;Humidity;BMP_temperature;BMP_pressure;BME280_temperature;BME280_humidity;BME280_pressure;Samples;Min_cycle;Max_cycle;Signal;HPM_P1;HPM_P2
2023/12/19 00:00:10;;;;;;;26.80;11.10;;;;;;;5.32;91.03;99900.33;78183;1295;3025790;-68
2023/12/19 00:02:37;;;;;;;29.00;12.60;;;;;;;5.74;90.72;99902.77;79918;1295;3011690;-69
2023/12/19 00:05:04;;;;;;;28.30;13.90;;;;;;;6.42;89.09;99895.76;79506;1297;3013626;-66
2023/12/19 00:07:32;;;;;;;27.80;14.70;;;;;;;6.42;87.87;99899.73;78270;1295;3052829;-66
2023/12/19 00:09:59;;;;;;;35.50;16.60;;;;;;;6.31;87.88;99896.64;79609;1301;3012958;-67
2023/12/19 00:12:26;;;;;;;42.00;18.40;;;;;;;6.14;88.18;99900.91;79409;1294;3013230;-66
2023/12/19 00:14:54;;;;;;;41.10;17.40;;;;;;;5.82;88.72;99899.71;78268;1301;3068856;-67
2023/12/19 00:17:21;;;;;;;46.20;20.60;;;;;;;5.71;89.54;99903.23;79542;1294;3012686;-68
2023/12/19 00:19:47;;;;;;;40.90;15.20;;;;;;;5.53;90.07;99898.95;79488;1295;3011537;-64
2023/12/19 00:22:15;;;;;;;40.70;17.50;;;;;;;6.04;89.83;99896.92;78355;1294;3026773;-65
2023/12/19 00:24:42;;;;;;;42.80;18.30;;;;;;;6.49;87.48;99891.66;79416;1300;3013615;-67
2023/12/19 00:27:08;;;;;;;39.50;19.90;;;;;;;6.51;86.79;99895.59;79576;1301;3011930;-68
2023/12/19 00:29:36;;;;;;;44.60;20.80;;;;;;;6.28;87.03;99897.83;78148;1295;3026884;-67
2023/12/19 00:32:03;;;;;;;43.70;19.30;;;;;;;6.00;87.81;99900.86;79488;1295;3013618;-68
2023/12/19 00:34:30;;;;;;;47.30;22.00;;;;;;;5.85;88.73;99897.52;79485;1298;3011949;-64
2023/12/19 00:36:58;;;;;;;43.70;19.00;;;;;;;5.76;89.39;99902.17;78256;1295;3028181;-66
2023/12/19 00:39:26;;;;;;;34.60;14.40;;;;;;;5.54;89.81;99910.05;79330;1301;3013190;-64
2023/12/19 00:41:53;;;;;;;34.90;15.50;;;;;;;5.95;89.63;99914.43;79300;1301;3013514;-63
2023/12/19 00:44:21;;;;;;;28.00;13.60;;;;;;;6.49;87.90;99909.40;78079;1295;3069202;-65
2023/12/19 00:46:48;;;;;;;25.40;12.60;;;;;;;6.45;87.08;99913.55;79512;1300;3012952;-65
2023/12/19 00:49:14;;;;;;;28.40;14.70;;;;;;;6.28;87.45;99912.75;79500;1295;3013579;-67
2023/12/19 00:51:42;;;;;;;27.40;14.30;;;;;;;6.09;87.96;99913.78;78253;1295;3028297;-65
2023/12/19 00:54:09;;;;;;;27.10;13.90;;;;;;;5.83;88.77;99913.95;79293;1299;3013464;-65
2023/12/19 00:56:37;;;;;;;31.40;14.10;;;;;;;5.52;89.86;99917.21;79516;1301;3011642;-65
2023/12/19 00:59:04;;;;;;;25.10;11.60;;;;;;;5.42;90.74;99922.26;78241;1301;3067482;-66
2023/12/19 01:01:31;;;;;;;24.10;12.50;;;;;;;5.82;90.37;99925.45;79850;1295;3012580;-65
2023/12/19 01:03:58;;;;;;;22.20;13.10;;;;;;;6.41;88.70;99929.36;79691;1299;3011829;-66
2023/12/19 01:06:26;;;;;;;22.50;12.30;;;;;;;6.33;87.57;99927.73;78245;1295;3026266;-65
2023/12/19 01:08:53;;;;;;;22.20;12.40;;;;;;;6.10;88.05;99929.95;79683;1307;3013057;-66
2023/12/19 01:11:20;;;;;;;27.10;13.30;;;;;;;5.95;88.54;99933.23;79518;1295;3011491;-67
2023/12/19 01:13:47;;;;;;;23.20;11.80;;;;;;;5.79;89.32;99931.80;78439;1300;3026524;-68
2023/12/19 01:16:15;;;;;;;20.80;11.80;;;;;;;5.60;89.59;99928.77;79524;1295;3013297;-67
2023/12/19 01:18:42;;;;;;;17.40;9.80;;;;;;;5.40;90.55;99927.34;79499;1295;3011885;-67
2023/12/19 01:21:11;;;;;;;23.40;11.50;;;;;;;5.75;90.80;99927.59;78265;1298;3054250;-67
2023/12/19 01:23:38;;;;;;;19.00;10.50;;;;;;;6.17;89.04;99932.46;79500;1299;3012934;-68
2023/12/19 01:26:05;;;;;;;20.00;10.70;;;;;;;6.20;88.32;99937.41;79400;1301;3013102;-66
2023/12/19 01:28:34;;;;;;;21.40;11.90;;;;;;;5.94;88.67;99937.59;78194;1298;3068632;-67
2023/12/19 01:31:00;;;;;;;21.80;11.30;;;;;;;5.68;89.48;99934.45;79500;1295;3012747;-67
2023/12/19 01:33:27;;;;;;;20.20;11.10;;;;;;;5.52;90.21;99935.30;79596;1295;3011402;-66
2023/12/19 01:35:55;;;;;;;21.80;11.70;;;;;;;5.29;91.13;99927.70;78306;1295;3051317;-66
2023/12/19 01:38:22;;;;;;;15.70;7.90;;;;;;;5.18;91.90;99928.55;79743;1300;3013517;-67
2023/12/19 01:40:48;;;;;;;16.40;8.90;;;;;;;5.67;91.34;99930.65;79391;1299;3011494;-71
2023/12/19 01:43:18;;;;;;;18.00;9.30;;;;;;;6.17;89.32;99929.15;78261;1300;3026255;-71
2023/12/19 01:45:45;;;;;;;17.50;9.70;;;;;;;6.27;88.13;99932.11;79471;1299;3013104;-66
2023/12/19 01:48:13;;;;;;;17.70;9.30;;;;;;;6.00;88.30;99932.02;79519;1295;3011634;-64
2023/12/19 01:50:41;;;;;;;17.00;9.40;;;;;;;5.80;88.67;99927.61;78313;1295;3053930;-65
2023/12/19 01:53:08;;;;;;;16.70;9.20;;;;;;;5.61;89.60;99929.27;79499;1301;3019031;-65
2023/12/19 01:55:34;;;;;;;17.30;9.90;;;;;;;5.54;89.90;99930.88;79466;1300;3013748;-67
2023/12/19 01:58:03;;;;;;;16.00;7.70;;;;;;;5.43;90.26;99930.55;78246;1300;3026490;-67
2023/12/19 02:00:30;;;;;;;19.80;9.90;;;;;;;5.83;89.52;99924.89;79502;1295;3013197;-68
2023/12/19 02:02:56;;;;;;;21.60;10.50;;;;;;;6.34;87.61;99924.23;79445;1295;3011803;-67
2023/12/19 02:05:24;;;;;;;20.90;10.20;;;;;;;6.46;87.27;99921.71;78348;1300;3052298;-67
2023/12/19 02:07:51;;;;;;;18.00;10.20;;;;;;;6.17;86.92;99929.52;79730;1298;3013649;-70
2023/12/19 02:10:17;;;;;;;19.40;10.00;;;;;;;5.92;87.72;99928.95;79378;1302;3011222;-67
2023/12/19 02:12:46;;;;;;;21.90;10.90;;;;;;;5.79;88.24;99925.19;78474;1295;3026836;-70
2023/12/19 02:15:13;;;;;;;21.10;10.90;;;;;;;5.72;88.63;99926.32;79492;1295;3012680;-70
2023/12/19 02:17:40;;;;;;;18.00;8.90;;;;;;;5.56;89.13;99922.50;79529;1295;3011809;-67
2023/12/19 02:20:08;;;;;;;20.20;10.90;;;;;;;5.93;88.90;99922.13;78374;1295;3052899;-68
2023/12/19 02:22:35;;;;;;;22.20;10.60;;;;;;;6.41;87.57;99923.27;79644;1301;3013808;-69
2023/12/19 02:25:02;;;;;;;25.40;13.40;;;;;;;6.44;86.92;99926.81;79500;1300;3013213;-73
2023/12/19 02:27:30;;;;;;;24.60;12.50;;;;;;;6.33;86.81;99926.70;78375;1301;3068328;-71
2023/12/19 02:29:57;;;;;;;29.30;14.50;;;;;;;6.01;87.53;99924.85;79562;1295;3013012;-69
2023/12/19 02:32:23;;;;;;;31.50;15.70;;;;;;;5.72;88.65;99926.14;79438;1295;3012926;-70
2023/12/19 02:34:51;;;;;;;30.70;15.70;;;;;;;5.50;89.74;99922.33;78353;1295;3026644;-71
2023/12/19 02:37:18;;;;;;;24.50;11.50;;;;;;;5.41;90.59;99916.02;79574;1299;3018153;-72
2023/12/19 02:39:44;;;;;;;26.20;13.80;;;;;;;5.75;90.29;99912.81;79622;1300;3011869;-69
2023/12/19 02:42:12;;;;;;;25.60;13.80;;;;;;;6.13;88.75;99912.28;78265;1301;3025983;-70
2023/12/19 02:44:39;;;;;;;23.70;13.00;;;;;;;6.24;88.23;99914.66;79646;1296;3013542;-66
2023/12/19 02:47:06;;;;;;;29.40;15.40;;;;;;;6.08;88.26;99917.63;79502;1299;3011618;-67
2023/12/19 02:49:33;;;;;;;27.80;15.90;;;;;;;5.86;88.91;99916.98;78424;1298;3026272;-71
2023/12/19 02:52:00;;;;;;;30.90;15.90;;;;;;;5.68;89.68;99925.20;79621;1299;3013274;-71
2023/12/19 02:54:27;;;;;;;35.90;17.30;;;;;;;5.45;90.39;99919.38;79467;1299;3011740;-72
2023/12/19 02:56:55;;;;;;;19.70;9.90;;;;;;;5.40;91.08;99915.87;78293;1295;3028087;-65
2023/12/19 02:59:22;;;;;;;30.90;13.90;;;;;;;5.93;90.21;99915.00;79539;1298;3012660;-68
2023/12/19 03:01:48;;;;;;;35.10;17.10;;;;;;;6.30;88.21;99918.78;79483;1295;3011825;-69
2023/12/19 03:04:16;;;;;;;29.50;15.00;;;;;;;6.40;87.48;99924.88;78328;1295;3026725;-69
2023/12/19 03:06:44;;;;;;;30.90;16.10;;;;;;;6.29;87.76;99920.90;79601;1295;3013076;-69
2023/12/19 03:09:11;;;;;;;31.40;16.80;;;;;;;6.06;87.97;99920.33;79505;1300;3011826;-68
2023/12/19 03:11:39;;;;;;;35.70;17.60;;;;;;;5.85;88.42;99917.51;78291;1300;3069304;-68
2023/12/19 03:14:05;;;;;;;34.80;15.50;;;;;;;5.67;89.12;99918.31;79694;1296;3018580;-71
2023/12/19 03:16:32;;;;;;;30.60;13.90;;;;;;;5.50;89.90;99921.81;79544;1300;3011523;-69
2023/12/19 03:19:00;;;;;;;30.80;15.60;;;;;;;5.89;89.63;99926.63;78359;1299;3026080;-72
2023/12/19 03:21:26;;;;;;;35.90;16.30;;;;;;;6.40;87.94;99924.88;79633;1295;3013095;-71
2023/12/19 03:23:53;;;;;;;30.20;16.70;;;;;;;6.54;87.14;99921.40;79592;1300;3011817;-71
2023/12/19 03:26:21;;;;;;;34.90;16.10;;;;;;;6.25;86.94;99923.50;78389;1295;3026039;-73
2023/12/19 03:28:48;;;;;;;32.50;16.80;;;;;;;6.09;87.85;99924.25;79549;1296;3013050;-69
2023/12/19 03:31:14;;;;;;;34.80;16.00;;;;;;;5.79;88.17;99920.50;79613;1295;3011875;-68
2023/12/19 03:33:43;;;;;;;36.50;16.60;;;;;;;5.54;89.27;99928.95;78312;1298;3026529;-71
2023/12/19 03:36:10;;;;;;;24.80;11.70;;;;;;;5.34;90.56;99930.15;79621;1298;3013312;-69
2023/12/19 03:38:37;;;;;;;32.70;14.80;;;;;;;5.79;89.87;99925.89;79596;1301;3013029;-72
2023/12/19 03:41:05;;;;;;;27.00;13.80;;;;;;;6.23;88.14;99919.23;78325;1300;3068488;-67
2023/12/19 03:43:34;;;;;;;26.40;13.40;;;;;;;6.24;87.76;99914.29;79550;1295;3015026;-68
2023/12/19 03:46:07;;;;;;;28.80;14.70;;;;;;;6.16;87.84;99911.48;79105;1296;3011743;-69
2023/12/19 03:48:37;;;;;;;33.70;14.20;;;;;;;6.02;88.36;99909.84;79639;1297;3011910;-66
2023/12/19 03:51:04;;;;;;;31.40;13.60;;;;;;;5.91;88.88;99914.02;78225;1295;3053155;-67
2023/12/19 03:53:31;;;;;;;36.70;15.00;;;;;;;5.82;88.75;99920.58;79544;1301;3013783;-67
2023/12/19 03:55:59;;;;;;;22.60;11.00;;;;;;;5.52;89.30;99923.66;79548;1301;3011639;-67
2023/12/19 03:58:28;;;;;;;31.30;14.50;;;;;;;6.06;89.13;99922.21;78274;1301;3069805;-71
2023/12/19 04:00:55;;;;;;;33.90;16.00;;;;;;;6.53;86.75;99918.99;79665;1301;3013376;-66
2023/12/19 04:03:21;;;;;;;31.60;16.40;;;;;;;6.62;86.71;99917.27;79540;1301;3011561;-66
2023/12/19 04:05:49;;;;;;;36.50;17.90;;;;;;;6.49;86.87;99918.64;78403;1301;3053047;-71
2023/12/19 04:08:16;;;;;;;38.30;17.80;;;;;;;6.27;86.86;99910.03;79669;1300;3019839;-70
2023/12/19 04:10:42;;;;;;;39.40;19.00;;;;;;;5.88;87.45;99906.16;79526;1301;3011526;-70
2023/12/19 04:13:10;;;;;;;48.60;21.70;;;;;;;5.70;88.93;99899.77;78371;1299;3026553;-66
2023/12/19 04:15:38;;;;;;;28.30;12.90;;;;;;;5.35;90.51;99897.47;79561;1300;3013203;-68
2023/12/19 04:18:05;;;;;;;30.70;15.40;;;;;;;5.89;90.33;99898.80;79556;1301;3011606;-68
2023/12/19 04:20:33;;;;;;;34.30;15.90;;;;;;;6.51;88.27;99898.73;78477;1300;3052132;-67
2023/12/19 04:23:00;;;;;;;32.00;16.60;;;;;;;6.54;86.98;99892.68;79610;1295;3013046;-71
2023/12/19 04:25:27;;;;;;;38.20;17.70;;;;;;;6.39;87.16;99905.77;79527;1301;3011716;-66
2023/12/19 04:27:55;;;;;;;38.00;17.70;;;;;;;6.08;87.50;99915.21;78353;1295;3026902;-67
2023/12/19 04:30:22;;;;;;;41.70;19.30;;;;;;;5.72;88.68;99919.52;79609;1295;3013481;-68
2023/12/19 04:32:48;;;;;;;34.20;18.60;;;;;;;5.55;89.91;99928.79;79702;1295;3011693;-70
2023/12/19 04:35:16;;;;;;;35.30;16.30;;;;;;;5.50;89.95;99939.73;78368;1295;3052334;-68
2023/12/19 04:37:43;;;;;;;44.10;21.10;;;;;;;6.08;89.96;99939.04;79596;1300;3013289;-67
2023/12/19 04:40:11;;;;;;;59.60;24.30;;;;;;;6.59;87.08;99940.38;79483;1300;3011943;-70
2023/12/19 04:42:39;;;;;;;48.10;22.90;;;;;;;6.45;86.62;99933.23;78234;1295;3067395;-70
2023/12/19 04:45:06;;;;;;;61.00;28.10;;;;;;;6.17;87.44;99932.13;79676;1295;3018683;-69
2023/12/19 04:47:34;;;;;;;68.50;30.60;;;;;;;6.12;87.70;99933.84;79454;1301;3011652;-67
2023/12/19 04:50:03;;;;;;;66.80;32.70;;;;;;;5.74;88.35;99940.49;78249;1295;3053058;-69
2023/12/19 04:52:31;;;;;;;78.20;34.70;;;;;;;5.51;89.37;99937.25;79468;1295;3013122;-71
2023/12/19 04:54:57;;;;;;;60.30;27.00;;;;;;;5.30;90.74;99933.55;79621;1300;3012814;-71
2023/12/19 04:57:25;;;;;;;62.70;29.80;;;;;;;5.63;90.94;99934.75;78262;1301;3067163;-68
2023/12/19 04:59:52;;;;;;;71.80;32.00;;;;;;;6.01;89.86;99939.11;79569;1295;3013570;-65
2023/12/19 05:02:19;;;;;;;73.10;32.70;;;;;;;6.27;89.31;99937.17;79482;1295;3013359;-68
2023/12/19 05:04:47;;;;;;;70.40;33.20;;;;;;;6.04;88.71;99935.16;78137;1295;3026394;-67
2023/12/19 05:07:14;;;;;;;68.00;31.70;;;;;;;5.75;89.61;99934.36;79498;1295;3019144;-68
2023/12/19 05:09:41;;;;;;;79.80;34.90;;;;;;;5.51;90.32;99941.77;79427;1300;3013483;-65
2023/12/19 05:12:09;;;;;;;66.50;30.70;;;;;;;5.50;90.93;99938.50;78223;1295;3070650;-67
2023/12/19 05:14:37;;;;;;;55.60;24.90;;;;;;;5.51;89.88;99941.06;79483;1295;3018589;-68
2023/12/19 05:17:03;;;;;;;60.30;25.10;;;;;;;5.84;89.72;99942.95;79475;1295;3011663;-67
2023/12/19 05:19:32;;;;;;;59.50;24.80;;;;;;;6.24;88.47;99933.64;78424;1295;3053674;-73
2023/12/19 05:21:58;;;;;;;58.80;24.70;;;;;;;6.32;88.08;99947.96;79425;1299;3013921;-69
2023/12/19 05:24:27;;;;;;;65.60;27.80;;;;;;;6.35;87.92;99954.98;79484;1301;3011344;-67
2023/12/19 05:26:59;;;;;;;63.10;28.60;;;;;;;6.08;87.96;99955.92;78133;1301;3068317;-66
2023/12/19 05:29:26;;;;;;;66.20;29.80;;;;;;;5.72;88.97;99961.42;79332;1295;3011386;-67
2023/12/19 05:31:54;;;;;;;76.50;33.10;;;;;;;5.55;90.02;99962.15;78214;1295;3026031;-67
2023/12/19 05:34:20;;;;;;;65.40;27.90;;;;;;;5.43;91.02;99958.71;79411;1295;3013386;-65
2023/12/19 05:36:47;;;;;;;53.80;23.70;;;;;;;5.84;90.90;99962.77;79468;1295;3013183;-67
2023/12/19 05:39:18;;;;;;;58.90;25.00;;;;;;;6.36;88.70;99965.55;78279;1301;3027918;-67
2023/12/19 05:41:44;;;;;;;43.80;20.30;;;;;;;6.44;88.06;99970.48;79347;1300;3013540;-67
2023/12/19 05:44:13;;;;;;;52.20;25.20;;;;;;;6.13;88.49;99970.69;78938;1296;3011571;-67
2023/12/19 05:46:40;;;;;;;47.30;24.70;;;;;;;6.08;88.45;99980.09;79436;1295;3019561;-66
2023/12/19 05:49:07;;;;;;;60.20;27.20;;;;;;;5.99;88.20;99986.46;79373;1301;3011451;-68
2023/12/19 05:51:39;;;;;;;57.50;25.70;;;;;;;5.68;89.29;99980.51;78244;1295;3028094;-68
2023/12/19 05:54:05;;;;;;;54.70;22.20;;;;;;;5.48;90.27;99978.02;79545;1300;3011731;-70
2023/12/19 05:56:33;;;;;;;46.60;20.10;;;;;;;5.93;90.66;99978.11;78228;1300;3028067;-72
2023/12/19 05:59:00;;;;;;;53.80;22.70;;;;;;;6.71;88.49;99979.64;79546;1295;3013683;-68
2023/12/19 06:01:26;;;;;;;56.80;24.10;;;;;;;6.62;86.97;99973.67;79421;1295;3011658;-73
2023/12/19 06:03:54;;;;;;;59.60;28.50;;;;;;;6.45;87.38;99974.11;78237;1295;3026549;-69
2023/12/19 06:06:22;;;;;;;75.70;32.10;;;;;;;6.36;87.87;99974.44;79413;1296;3013339;-71
2023/12/19 06:08:48;;;;;;;76.40;31.00;;;;;;;6.18;88.05;99968.28;79353;1295;3013051;-71
2023/12/19 06:11:26;;;;;;;74.40;29.30;;;;;;;5.98;88.37;99971.88;78211;1298;3052323;-69
2023/12/19 06:13:54;;;;;;;46.10;19.80;;;;;;;5.76;89.70;99975.89;78207;1301;3051873;-69
2023/12/19 06:16:21;;;;;;;44.60;20.80;;;;;;;6.21;89.27;99980.50;79523;1295;3011559;-68
2023/12/19 06:18:47;;;;;;;42.20;18.00;;;;;;;6.61;88.10;99978.43;79469;1299;3011731;-71
2023/12/19 06:21:16;;;;;;;36.80;18.30;;;;;;;6.41;87.62;99984.52;78161;1299;3029624;-68
2023/12/19 06:23:43;;;;;;;33.40;16.60;;;;;;;6.21;88.88;99995.30;79495;1300;3013594;-71
2023/12/19 06:27:04;;;;;;;34.20;15.60;;;;;;;5.85;90.45;99998.73;80140;1299;3013041;-69
2023/12/19 06:29:31;;;;;;;32.30;14.40;;;;;;;5.83;90.90;99998.96;79272;1304;3013396;-69
2023/12/19 06:31:57;;;;;;;24.10;10.70;;;;;;;5.71;91.36;100005.98;79029;1300;3011582;-70
2023/12/19 06:34:28;;;;;;;23.60;12.10;;;;;;;6.16;90.52;100007.12;77987;1305;3052792;-72
2023/12/19 06:36:54;;;;;;;20.00;10.30;;;;;;;6.39;89.79;100008.27;79066;1301;3011376;-68
2023/12/19 06:39:23;;;;;;;25.90;12.30;;;;;;;6.42;89.10;100006.74;78439;1299;3011676;-70
2023/12/19 06:41:50;;;;;;;26.00;12.30;;;;;;;6.33;88.93;100006.38;79425;1298;3018712;-69
2023/12/19 06:44:17;;;;;;;24.60;12.80;;;;;;;6.03;90.08;100008.42;79260;1299;3011678;-70
2023/12/19 06:46:49;;;;;;;30.20;15.00;;;;;;;5.84;90.93;100001.38;77991;1301;3025464;-71
2023/12/19 06:49:16;;;;;;;17.90;9.10;;;;;;;5.61;92.40;99995.31;79338;1299;3011713;-70
2023/12/19 06:51:44;;;;;;;25.10;11.40;;;;;;;6.02;92.49;99994.86;78185;1301;3052099;-70
2023/12/19 06:54:11;;;;;;;24.30;12.90;;;;;;;6.53;90.09;99992.27;79447;1300;3019015;-69
2023/12/19 06:56:39;;;;;;;26.80;13.50;;;;;;;6.45;88.93;99987.00;79413;1299;3011934;-71
2023/12/19 06:59:07;;;;;;;31.90;15.90;;;;;;;6.33;89.76;99983.59;78115;1301;3049600;-71
2023/12/19 07:01:35;;;;;;;40.00;17.10;;;;;;;6.30;90.00;99982.29;79358;1301;3012941;-73
2023/12/19 07:04:03;;;;;;;27.60;14.10;;;;;;;6.05;90.79;99976.88;79260;1301;3011626;-72
2023/12/19 07:06:31;;;;;;;25.00;13.40;;;;;;;5.86;91.38;99976.80;78266;1301;3052899;-71
2023/12/19 07:08:59;;;;;;;22.30;10.50;;;;;;;5.75;91.91;99976.61;79221;1299;3013391;-67
2023/12/19 07:11:28;;;;;;;23.40;12.10;;;;;;;6.29;91.67;99980.92;79455;1300;3013140;-68
2023/12/19 07:13:57;;;;;;;35.10;16.40;;;;;;;6.62;89.24;99989.00;78308;1299;3047703;-71
2023/12/19 07:16:25;;;;;;;31.50;16.70;;;;;;;6.70;88.96;99990.46;79287;1299;3014687;-67
2023/12/19 07:18:52;;;;;;;57.70;22.80;;;;;;;6.56;89.13;99993.74;79389;1304;3011611;-66
2023/12/19 07:21:23;;;;;;;50.90;21.20;;;;;;;6.55;89.48;99995.18;78396;1301;3052665;-67
2023/12/19 07:23:51;;;;;;;39.40;17.90;;;;;;;6.37;89.33;100002.40;79538;1298;3011702;-68
2023/12/19 07:26:22;;;;;;;42.80;16.80;;;;;;;6.12;89.94;100003.07;78380;1301;3049272;-67
2023/12/19 07:28:50;;;;;;;26.90;12.90;;;;;;;6.05;91.10;100007.85;79446;1300;3012970;-69
2023/12/19 07:31:20;;;;;;;29.20;13.60;;;;;;;6.41;90.20;100011.33;78243;1300;3027770;-70
2023/12/19 07:33:46;;;;;;;22.40;10.60;;;;;;;6.82;89.21;100012.48;79428;1301;3013682;-68
2023/12/19 07:36:13;;;;;;;28.40;13.60;;;;;;;6.96;87.48;100013.86;79463;1299;3011916;-67
2023/12/19 07:38:41;;;;;;;32.90;15.40;;;;;;;6.76;87.70;100023.67;78387;1301;3052416;-69
2023/12/19 07:41:07;;;;;;;33.30;16.80;;;;;;;6.40;88.89;100027.19;79647;1299;3013579;-72
2023/12/19 07:43:35;;;;;;;38.60;16.90;;;;;;;6.39;89.15;100030.16;79621;1298;3011464;-69
2023/12/19 07:46:06;;;;;;;27.60;12.90;;;;;;;6.07;90.22;100029.34;78456;1298;3049812;-71
2023/12/19 07:48:33;;;;;;;32.80;16.10;;;;;;;6.49;90.17;100025.30;79493;1300;3013754;-70
2023/12/19 07:51:02;;;;;;;29.80;15.00;;;;;;;6.93;88.56;100028.80;78888;1299;3011878;-70
2023/12/19 07:53:32;;;;;;;36.00;17.30;;;;;;;6.95;87.87;100018.98;79414;1301;3018879;-69
2023/12/19 07:56:03;;;;;;;43.80;21.20;;;;;;;6.78;88.25;100015.77;79138;1298;3013636;-66
2023/12/19 07:58:30;;;;;;;44.90;19.10;;;;;;;6.63;88.60;100020.29;79483;1299;3011614;-67
2023/12/19 08:00:59;;;;;;;36.40;17.10;;;;;;;6.28;89.80;100023.23;79086;1297;3011791;-70
2023/12/19 08:03:27;;;;;;;32.40;14.90;;;;;;;6.17;90.65;100032.31;79567;1298;3013305;-68
2023/12/19 08:05:56;;;;;;;26.30;11.40;;;;;;;6.03;91.15;100027.40;79453;1298;3011627;-72
2023/12/19 08:08:24;;;;;;;22.70;10.40;;;;;;;6.47;90.88;100030.24;78378;1299;3048259;-68
2023/12/19 08:10:51;;;;;;;24.80;12.20;;;;;;;7.09;88.94;100027.33;79528;1301;3013350;-68
2023/12/19 08:13:20;;;;;;;28.00;12.80;;;;;;;7.01;87.56;100025.02;80819;1301;3011311;-68
2023/12/19 08:15:48;;;;;;;26.20;12.70;;;;;;;6.74;88.29;100022.35;78227;1301;3051002;-67
2023/12/19 08:18:15;;;;;;;32.60;14.30;;;;;;;6.58;89.18;100022.05;79506;1297;3015852;-69
2023/12/19 08:20:42;;;;;;;48.30;17.70;;;;;;;6.34;89.81;100020.77;79432;1301;3013478;-67
2023/12/19 08:23:10;;;;;;;59.80;22.90;;;;;;;6.23;90.82;100017.67;78168;1301;3026137;-65
2023/12/19 08:25:41;;;;;;;58.90;18.40;;;;;;;6.06;91.38;100018.26;79532;1301;3012702;-74
2023/12/19 08:28:09;;;;;;;83.30;27.10;;;;;;;6.62;91.04;100016.84;78234;1299;3068509;-66
2023/12/19 08:30:36;;;;;;;74.00;24.60;;;;;;;6.90;88.85;100013.60;79418;1298;3018960;-70
2023/12/19 08:33:03;;;;;;;44.30;17.20;;;;;;;6.82;88.87;100010.92;79657;1298;3011509;-68
2023/12/19 08:35:31;;;;;;;40.80;16.60;;;;;;;6.78;89.20;100012.09;78287;1299;3027769;-69
2023/12/19 08:37:58;;;;;;;44.90;17.30;;;;;;;6.49;89.85;100008.77;79397;1301;3013276;-69
2023/12/19 08:40:24;;;;;;;48.50;19.50;;;;;;;6.26;91.35;100002.60;79356;1301;3013122;-70
2023/12/19 08:42:55;;;;;;;45.90;19.00;;;;;;;6.32;91.79;100000.14;78282;1297;3025664;-69
2023/12/19 08:45:23;;;;;;;32.60;14.60;;;;;;;6.18;92.16;99997.30;79430;1301;3011481;-70
2023/12/19 08:47:51;;;;;;;38.10;17.50;;;;;;;6.56;91.46;99990.95;78341;1299;3056090;-69
2023/12/19 08:50:18;;;;;;;34.10;17.40;;;;;;;7.00;89.29;99979.80;79376;1298;3013597;-71
2023/12/19 08:52:45;;;;;;;32.20;17.00;;;;;;;7.10;88.46;99968.08;79412;1299;3011949;-69
2023/12/19 08:55:13;;;;;;;28.00;13.90;;;;;;;7.04;88.38;99959.95;78202;1301;3026004;-68
2023/12/19 08:57:41;;;;;;;31.40;15.00;;;;;;;6.84;88.67;99945.90;79350;1304;3013507;-64
2023/12/19 09:00:12;;;;;;;27.50;13.70;;;;;;;6.55;89.84;99942.60;79225;1301;3011466;-65
2023/12/19 09:02:43;;;;;;;29.40;13.30;;;;;;;6.39;91.08;99935.87;78035;1301;3056115;-66
2023/12/19 09:05:14;;;;;;;22.70;11.60;;;;;;;6.14;92.52;99929.97;79400;1299;3011404;-66
2023/12/19 09:07:42;;;;;;;27.10;14.10;;;;;;;6.60;91.82;99921.70;78353;1298;3053258;-70
2023/12/19 09:10:11;;;;;;;25.00;11.80;;;;;;;7.07;89.50;99910.17;79546;1300;3013107;-69
2023/12/19 09:12:40;;;;;;;23.30;12.40;;;;;;;7.16;88.67;99913.86;78892;1297;3011663;-71
2023/12/19 09:15:08;;;;;;;24.20;12.70;;;;;;;6.90;88.84;99926.50;79474;1301;3013421;-72
2023/12/19 09:17:35;;;;;;;24.30;11.50;;;;;;;6.54;90.29;99940.73;79533;1301;3011844;-74
2023/12/19 09:20:05;;;;;;;22.30;11.30;;;;;;;6.55;90.15;99932.67;78221;1299;3055869;-73
2023/12/19 09:22:32;;;;;;;26.10;12.00;;;;;;;6.36;90.93;99925.19;79559;1299;3011877;-72
2023/12/19 09:25:01;;;;;;;23.00;10.00;;;;;;;6.20;92.14;99929.23;79007;1298;3013684;-69
2023/12/19 09:27:28;;;;;;;22.50;11.50;;;;;;;6.56;91.32;99928.30;79649;1299;3013061;-72
2023/12/19 09:29:54;;;;;;;20.60;11.10;;;;;;;7.04;89.52;99924.23;79417;1300;3011545;-71
2023/12/19 09:32:22;;;;;;;19.90;10.50;;;;;;;6.90;89.21;99923.55;78252;1298;3026441;-73
2023/12/19 09:34:49;;;;;;;22.20;12.20;;;;;;;6.88;89.56;99919.27;79573;1299;3013619;-72
2023/12/19 09:37:16;;;;;;;31.40;16.10;;;;;;;6.88;90.01;99920.16;79578;1299;3013471;-71
2023/12/19 09:39:47;;;;;;;24.20;12.60;;;;;;;6.60;90.20;99916.84;78383;1300;3026275;-70
2023/12/19 09:42:17;;;;;;;22.20;12.40;;;;;;;6.29;91.65;99911.34;79450;1297;3013428;-72
2023/12/19 09:44:46;;;;;;;15.90;8.20;;;;;;;6.08;93.08;99903.55;78450;1298;3052046;-72
2023/12/19 09:47:12;;;;;;;16.70;9.80;;;;;;;6.74;92.23;99890.20;79515;1300;3013200;-72
2023/12/19 09:49:39;;;;;;;19.10;9.50;;;;;;;7.46;89.11;99887.55;79437;1295;3011734;-70
2023/12/19 09:52:07;;;;;;;18.60;10.00;;;;;;;7.33;87.65;99881.98;78261;1295;3056860;-70
2023/12/19 09:54:35;;;;;;;19.80;10.10;;;;;;;6.95;88.42;99887.33;79546;1295;3013613;-71
2023/12/19 09:57:02;;;;;;;19.20;10.40;;;;;;;6.78;89.47;99881.85;81138;1295;3013445;-73
2023/12/19 09:59:30;;;;;;;20.60;10.10;;;;;;;6.57;90.65;99875.20;79022;1301;3053241;-73
2023/12/19 10:01:56;;;;;;;20.40;11.00;;;;;;;6.36;91.10;99879.78;79679;1300;3013760;-72
2023/12/19 10:04:23;;;;;;;15.50;8.30;;;;;;;6.27;91.75;99874.53;79783;1295;3011803;-72
2023/12/19 10:06:55;;;;;;;16.40;8.70;;;;;;;6.81;90.86;99870.08;78404;1298;3026429;-73
2023/12/19 10:09:22;;;;;;;19.40;10.20;;;;;;;7.18;87.77;99867.25;79777;1295;3012914;-70
2023/12/19 10:12:12;;;;;;;20.30;10.50;;;;;;;7.11;87.46;99860.77;78633;1296;3025832;-75
2023/12/19 10:14:40;;;;;;;18.20;9.70;;;;;;;6.95;88.05;99859.95;78333;1299;3051030;-74
2023/12/19 10:17:12;;;;;;;22.30;11.40;;;;;;;6.96;87.67;99861.83;79736;1295;3018801;-72
2023/12/19 10:19:40;;;;;;;21.60;12.20;;;;;;;6.65;89.11;99863.73;78343;1295;3068363;-75
2023/12/19 10:22:11;;;;;;;19.00;10.80;;;;;;;6.66;89.80;99860.92;79745;1295;3013436;-74
2023/12/19 10:24:39;;;;;;;16.00;8.60;;;;;;;6.44;90.25;99862.27;78505;1296;3049293;-76
2023/12/19 10:27:06;;;;;;;15.40;8.80;;;;;;;6.94;89.76;99854.95;79544;1296;3012826;-73
2023/12/19 10:29:36;;;;;;;13.70;8.50;;;;;;;7.27;87.45;99844.59;79637;1295;3013401;-73
2023/12/19 10:32:19;;;;;;;16.50;9.00;;;;;;;7.02;87.34;99846.82;78460;1298;3052928;-75
2023/12/19 10:34:56;;;;;;;18.10;10.60;;;;;;;6.90;88.12;99843.62;78494;1294;3070422;-75
2023/12/19 10:37:27;;;;;;;15.90;9.60;;;;;;;6.60;89.56;99844.24;78361;1298;3050679;-74
2023/12/19 10:40:09;;;;;;;15.70;9.70;;;;;;;6.70;89.37;99834.64;79777;1297;3013057;-74
2023/12/19 10:42:38;;;;;;;16.30;9.90;;;;;;;6.55;89.47;99833.83;78450;1296;3050045;-74
2023/12/19 10:45:05;;;;;;;14.90;9.70;;;;;;;6.49;89.93;99827.63;79585;1295;3019138;-75
2023/12/19 10:47:36;;;;;;;13.70;7.40;;;;;;;6.40;90.86;99825.51;78538;1298;3052788;-73
2023/12/19 10:50:04;;;;;;;13.80;8.20;;;;;;;7.00;89.19;99823.37;79616;1296;3013651;-74
2023/12/19 10:52:30;;;;;;;14.70;8.50;;;;;;;7.42;86.29;99829.31;79681;1298;3013589;-75
2023/12/19 10:55:05;;;;;;;15.50;9.20;;;;;;;7.41;85.72;99827.10;78175;1301;3057123;-73
2023/12/19 10:57:36;;;;;;;16.80;9.10;;;;;;;7.13;86.29;99827.20;78992;1299;3013486;-75
2023/12/19 11:00:10;;;;;;;22.50;10.20;;;;;;;6.99;87.46;99830.75;79604;1295;3012650;-73
2023/12/19 11:03:05;;;;;;;21.30;10.50;;;;;;;6.77;88.04;99829.84;78421;1295;3053566;-74
2023/12/19 11:05:45;;;;;;;18.10;10.90;;;;;;;6.62;89.23;99825.54;78607;1297;3050149;-75
2023/12/19 11:08:17;;;;;;;16.50;9.00;;;;;;;6.32;90.51;99826.17;78388;1298;3052353;-75
2023/12/19 11:10:58;;;;;;;12.50;7.30;;;;;;;6.24;91.44;99825.91;79583;1298;3011493;-75
2023/12/19 11:13:26;;;;;;;14.10;8.40;;;;;;;6.72;90.48;99816.30;78431;1295;3069427;-75